Time;durP1;ratioP1;P1;durP2;ratioP2;P2;SDS_P1;SDS_P2;PMS_P1;PMS_P2;Temp;Humidity;BMP_temperature;BMP_pressure;BME280_temperature;BME280_humidity;BME280_pressure;Samples;Min_cycle;Max_cycle;Signal;HPM_P1;HPM_P2
2021/09/07 00:00:02;;;;;;;6.72;4.55;;;18.50;70.60;;;;;;2046410;29;20039;-92
2021/09/07 00:01:21;;;;;;;6.60;4.60;;;18.60;70.70;;;;;;2035463;29;20855;-91
2021/09/07 00:02:41;;;;;;;7.45;4.68;;;18.60;70.70;;;;;;2041650;29;20039;-93
2021/09/07 00:04:01;;;;;;;6.13;4.38;;;18.60;70.60;;;;;;2038035;29;20032;-93
2021/09/07 00:05:20;;;;;;;6.75;4.40;;;18.60;70.70;;;;;;2037574;29;20071;-92
2021/09/07 00:06:39;;;;;;;7.32;4.72;;;18.60;70.60;;;;;;2047967;28;20031;-93
2021/09/07 00:07:58;;;;;;;6.72;4.38;;;18.60;70.60;;;;;;2034337;29;20068;-92
2021/09/07 00:09:18;;;;;;;7.57;4.80;;;18.60;70.60;;;;;;2028292;29;20028;-93
2021/09/07 00:10:37;;;;;;;6.72;4.43;;;18.70;70.60;;;;;;2044204;28;20047;-92
2021/09/07 00:11:56;;;;;;;6.32;4.30;;;18.70;70.50;;;;;;2052874;28;20481;-92
2021/09/07 00:13:15;;;;;;;7.30;4.82;;;18.70;70.50;;;;;;2045309;29;20031;-92
2021/09/07 00:14:35;;;;;;;7.47;4.30;;;18.70;70.50;;;;;;2037966;29;20032;-92
2021/09/07 00:15:54;;;;;;;6.55;4.35;;;18.70;70.50;;;;;;2045394;29;20031;-92
2021/09/07 00:17:13;;;;;;;7.40;4.45;;;18.80;70.50;;;;;;2039640;29;20498;-93
2021/09/07 00:18:32;;;;;;;6.43;4.43;;;18.70;70.40;;;;;;2042323;29;20035;-93
2021/09/07 00:19:52;;;;;;;6.63;4.43;;;18.80;70.50;;;;;;2032524;29;20048;-92
2021/09/07 00:21:11;;;;;;;6.25;4.38;;;18.80;70.40;;;;;;2034796;29;20035;-93
2021/09/07 00:22:30;;;;;;;6.97;4.45;;;18.80;70.40;;;;;;2034939;29;20044;-92
2021/09/07 00:23:49;;;;;;;6.38;4.13;;;18.80;70.40;;;;;;2036807;29;20388;-92
2021/09/07 00:25:10;;;;;;;6.88;4.22;;;18.80;70.40;;;;;;2042490;29;20036;-92
2021/09/07 00:26:29;;;;;;;;;;;18.80;70.50;;;;;;2018430;29;20037;-92
2021/09/07 00:27:49;;;;;;;5.97;3.92;;;18.80;70.40;;;;;;2027620;29;19923;-92
2021/09/07 00:29:08;;;;;;;6.90;4.20;;;18.80;70.40;;;;;;2042541;29;20023;-92
2021/09/07 00:30:27;;;;;;;7.10;4.50;;;18.80;70.50;;;;;;2026346;29;20040;-92
2021/09/07 00:31:46;;;;;;;6.25;4.10;;;18.80;70.60;;;;;;2033496;29;20047;-92
2021/09/07 00:33:08;;;;;;;6.68;4.00;;;18.80;70.60;;;;;;2028667;29;20036;-92
2021/09/07 00:34:27;;;;;;;6.80;4.40;;;18.80;70.60;;;;;;2031686;29;20507;-92
2021/09/07 00:35:46;;;;;;;6.68;4.28;;;18.80;70.60;;;;;;2037080;29;20028;-92
2021/09/07 00:37:05;;;;;;;7.18;4.63;;;18.90;70.70;;;;;;2031801;29;20044;-93
2021/09/07 00:38:25;;;;;;;7.05;4.47;;;18.90;70.70;;;;;;2034788;29;20036;-92
2021/09/07 00:39:44;;;;;;;6.68;4.70;;;18.80;70.60;;;;;;2039086;29;20035;-91
2021/09/07 00:41:03;;;;;;;7.13;4.32;;;18.90;71.30;;;;;;2044167;28;20043;-92
2021/09/07 00:42:23;;;;;;;6.90;4.57;;;18.90;70.70;;;;;;2042454;29;20024;-92
2021/09/07 00:43:42;;;;;;;7.18;4.60;;;18.90;70.70;;;;;;2039871;29;20031;-92
2021/09/07 00:45:04;;;;;;;7.78;4.55;;;18.90;70.70;;;;;;2051309;28;20031;-93
2021/09/07 00:46:23;;;;;;;7.30;4.60;;;18.90;70.70;;;;;;2048839;29;20047;-92
2021/09/07 00:47:42;;;;;;;7.75;5.00;;;18.90;70.70;;;;;;2050109;28;20035;-92
2021/09/07 00:49:02;;;;;;;6.78;4.15;;;18.90;70.70;;;;;;2057570;28;21506;-93
2021/09/07 00:50:21;;;;;;;7.20;4.60;;;18.90;70.70;;;;;;2057586;28;20039;-93
2021/09/07 00:51:42;;;;;;;7.43;4.80;;;18.90;70.80;;;;;;2030991;29;20704;-92
2021/09/07 00:53:02;;;;;;;6.88;4.55;;;18.90;70.70;;;;;;2042945;28;20420;-93
2021/09/07 00:54:26;;;;;;;6.60;4.13;;;18.90;70.70;;;;;;2044792;29;20036;-93
2021/09/07 00:55:46;;;;;;;7.50;4.43;;;18.90;70.80;;;;;;2047471;28;20035;-93
2021/09/07 00:57:09;;;;;;;5.93;4.22;;;18.90;70.80;;;;;;2046543;29;20110;-93
2021/09/07 00:58:30;;;;;;;7.97;4.70;;;18.90;70.80;;;;;;2046249;29;20035;-92
2021/09/07 00:59:53;;;;;;;6.80;4.63;;;18.90;70.80;;;;;;2039021;29;20039;-92
2021/09/07 01:01:13;;;;;;;6.45;4.35;;;18.90;70.90;;;;;;2044437;28;20047;-92
2021/09/07 01:02:32;;;;;;;6.20;3.95;;;18.90;70.90;;;;;;2034456;29;20036;-93
2021/09/07 01:03:52;;;;;;;7.22;4.40;;;18.90;71.00;;;;;;2030467;29;20131;-93
2021/09/07 01:05:11;;;;;;;7.20;4.68;;;18.90;71.10;;;;;;2042345;29;20494;-93
2021/09/07 01:06:32;;;;;;;6.53;4.50;;;18.90;71.20;;;;;;2037386;29;20075;-92
2021/09/07 01:07:51;;;;;;;7.57;4.85;;;18.80;71.20;;;;;;2039897;29;20023;-92
2021/09/07 01:09:12;;;;;;;7.25;4.47;;;18.80;71.30;;;;;;2042202;29;20039;-92
2021/09/07 01:10:31;;;;;;;;;;;18.80;71.30;;;;;;2049551;28;20031;-92
2021/09/07 01:11:50;;;;;;;7.05;4.28;;;18.80;71.20;;;;;;2039857;29;19915;-92
2021/09/07 01:13:10;;;;;;;6.40;4.40;;;18.80;71.30;;;;;;2041940;29;20043;-93
2021/09/07 01:14:34;;;;;;;7.25;4.25;;;18.80;71.30;;;;;;2040882;29;20492;-92
2021/09/07 01:15:53;;;;;;;6.15;4.35;;;18.80;71.40;;;;;;2046527;28;20142;-92
2021/09/07 01:17:15;;;;;;;6.53;4.38;;;18.80;71.50;;;;;;2058494;28;20039;-93
2021/09/07 01:18:34;;;;;;;7.13;4.65;;;18.80;71.50;;;;;;2047876;29;20035;-93
2021/09/07 01:19:53;;;;;;;7.57;4.88;;;18.70;71.50;;;;;;2037814;29;20048;-92
2021/09/07 01:21:15;;;;;;;8.38;5.35;;;18.70;71.60;;;;;;2043393;28;20084;-92
2021/09/07 01:22:34;;;;;;;7.20;4.82;;;18.80;71.60;;;;;;2046840;29;20062;-92
2021/09/07 01:23:54;;;;;;;7.10;4.60;;;18.80;71.60;;;;;;2032027;29;20040;-93
2021/09/07 01:25:13;;;;;;;6.75;4.40;;;18.80;71.60;;;;;;2031362;29;20047;-92
2021/09/07 01:26:32;;;;;;;7.82;5.15;;;18.80;71.60;;;;;;2049386;28;20073;-92
2021/09/07 01:27:51;;;;;;;6.95;4.93;;;18.80;71.60;;;;;;2030511;29;20035;-92
2021/09/07 01:29:11;;;;;;;8.02;4.90;;;18.70;71.60;;;;;;2032776;29;20070;-92
2021/09/07 01:30:30;;;;;;;6.85;5.07;;;18.70;71.60;;;;;;2043758;29;20043;-91
2021/09/07 01:31:50;;;;;;;6.93;4.22;;;18.70;71.60;;;;;;2054995;28;20073;-93
2021/09/07 01:33:11;;;;;;;6.57;5.00;;;18.80;71.70;;;;;;2050338;28;20044;-92
2021/09/07 01:34:30;;;;;;;7.30;4.78;;;18.80;71.70;;;;;;2043033;29;20020;-93
2021/09/07 01:35:50;;;;;;;6.97;4.90;;;18.80;71.70;;;;;;2040412;29;20043;-92
2021/09/07 01:37:09;;;;;;;7.15;4.90;;;18.80;71.70;;;;;;2042662;29;20442;-93
2021/09/07 01:38:30;;;;;;;7.13;5.07;;;18.80;71.70;;;;;;2054380;28;20038;-92
2021/09/07 01:39:49;;;;;;;6.95;4.60;;;18.80;71.70;;;;;;2049033;28;20027;-93
2021/09/07 01:41:09;;;;;;;7.40;4.82;;;18.70;71.70;;;;;;2049364;28;20035;-93
2021/09/07 01:42:28;;;;;;;8.65;5.50;;;18.70;71.70;;;;;;2044744;29;20115;-91
2021/09/07 01:43:51;;;;;;;7.68;5.38;;;18.70;71.70;;;;;;2040174;29;20040;-92
2021/09/07 01:45:11;;;;;;;8.90;5.35;;;18.70;71.70;;;;;;2045608;28;20036;-92
2021/09/07 01:46:30;;;;;;;7.93;5.50;;;18.70;71.80;;;;;;2046757;29;20039;-91
2021/09/07 01:47:50;;;;;;;8.38;5.38;;;18.60;71.90;;;;;;2038138;29;20518;-92
2021/09/07 01:49:10;;;;;;;7.85;5.30;;;18.60;71.90;;;;;;2043008;28;20031;-93
2021/09/07 01:50:30;;;;;;;6.75;4.93;;;18.60;72.00;;;;;;2041793;29;20025;-90
2021/09/07 01:51:49;;;;;;;7.80;5.45;;;18.60;72.00;;;;;;2031651;29;20036;-92
2021/09/07 01:53:08;;;;;;;7.63;5.22;;;18.60;72.60;;;;;;2042342;28;20043;-92
2021/09/07 01:54:27;;;;;;;7.57;5.18;;;18.60;72.10;;;;;;2041261;29;20047;-93
2021/09/07 01:55:47;;;;;;;7.70;5.10;;;18.50;72.00;;;;;;2038950;29;20067;-92
2021/09/07 01:57:06;;;;;;;8.88;5.38;;;18.50;72.00;;;;;;2037284;29;20036;-92
2021/09/07 01:58:25;;;;;;;9.98;5.55;;;18.50;72.70;;;;;;2032822;29;20043;-93
2021/09/07 01:59:45;;;;;;;8.18;5.38;;;18.50;72.10;;;;;;2026509;29;20052;-92
2021/09/07 02:01:04;;;;;;;7.47;5.25;;;18.50;72.70;;;;;;2035157;29;20052;-92
2021/09/07 02:02:23;;;;;;;9.25;5.07;;;18.50;72.10;;;;;;2045050;29;20066;-93
2021/09/07 02:03:42;;;;;;;8.52;5.57;;;18.50;72.10;;;;;;2046510;29;20429;-92
2021/09/07 02:05:01;;;;;;;8.10;5.90;;;18.50;72.10;;;;;;2038638;29;20514;-92
2021/09/07 02:06:21;;;;;;;9.13;5.35;;;18.50;72.10;;;;;;2037005;29;20043;-92
2021/09/07 02:07:40;;;;;;;8.32;5.68;;;18.50;72.20;;;;;;2041028;29;20032;-92
2021/09/07 02:08:59;;;;;;;7.90;5.20;;;18.50;72.20;;;;;;2033244;29;20063;-92
2021/09/07 02:10:21;;;;;;;8.13;5.20;;;18.50;72.10;;;;;;2038375;29;20043;-91
2021/09/07 02:11:41;;;;;;;7.18;5.10;;;18.50;72.20;;;;;;2045479;29;20035;-92
2021/09/07 02:13:00;;;;;;;7.72;5.25;;;18.50;72.20;;;;;;2044913;29;20043;-92
2021/09/07 02:14:20;;;;;;;7.57;5.00;;;18.50;72.10;;;;;;2042755;28;20505;-92
2021/09/07 02:15:40;;;;;;;7.28;5.10;;;18.50;72.20;;;;;;2049804;28;20417;-92
2021/09/07 02:16:59;;;;;;;7.45;5.38;;;18.50;72.10;;;;;;2039631;29;20031;-92
2021/09/07 02:18:18;;;;;;;7.22;5.07;;;18.60;72.10;;;;;;2036498;28;20032;-92
2021/09/07 02:19:37;;;;;;;7.55;5.15;;;18.50;72.80;;;;;;2038909;28;20632;-93
2021/09/07 02:20:57;;;;;;;7.95;5.32;;;18.50;72.20;;;;;;2030990;29;20052;-92
2021/09/07 02:22:16;;;;;;;6.95;5.03;;;18.50;72.20;;;;;;2045098;29;20035;-93
2021/09/07 02:23:36;;;;;;;7.47;4.75;;;18.50;72.30;;;;;;2054402;28;20038;-92
2021/09/07 02:24:55;;;;;;;6.32;4.45;;;18.50;72.30;;;;;;2041933;29;20036;-92
2021/09/07 02:26:15;;;;;;;7.10;5.30;;;18.60;72.40;;;;;;2047591;29;20130;-92
2021/09/07 02:27:35;;;;;;;7.28;4.85;;;18.60;72.30;;;;;;2050783;28;20047;-92
2021/09/07 02:28:54;;;;;;;8.25;5.30;;;18.60;72.90;;;;;;2039742;29;20044;-92
2021/09/07 02:30:14;;;;;;;8.10;5.45;;;18.60;72.30;;;;;;2043163;29;20043;-92
2021/09/07 02:31:33;;;;;;;7.60;5.25;;;18.60;72.30;;;;;;2029990;29;20507;-93
2021/09/07 02:32:53;;;;;;;7.40;5.18;;;18.60;72.30;;;;;;2039687;29;20425;-92
2021/09/07 02:34:12;;;;;;;7.43;5.15;;;18.60;72.30;;;;;;2047965;28;20035;-92
2021/09/07 02:35:33;;;;;;;8.10;5.20;;;18.50;72.20;;;;;;2040610;28;20127;-92
2021/09/07 02:36:53;;;;;;;7.65;5.15;;;18.60;72.30;;;;;;2038145;29;20075;-92
2021/09/07 02:38:12;;;;;;;7.45;5.35;;;18.50;72.30;;;;;;2042782;29;20494;-92
2021/09/07 02:39:31;;;;;;;7.50;4.90;;;18.60;72.30;;;;;;2039421;28;20040;-92
2021/09/07 02:40:50;;;;;;;8.02;5.03;;;18.50;72.30;;;;;;2050478;28;20509;-92
2021/09/07 02:42:10;;;;;;;7.78;5.05;;;18.50;72.30;;;;;;2048882;28;20467;-92
2021/09/07 02:43:29;;;;;;;7.35;5.30;;;18.60;72.40;;;;;;2044279;28;20047;-92
2021/09/07 02:44:49;;;;;;;7.60;5.13;;;18.60;73.00;;;;;;2036925;29;20036;-92
2021/09/07 02:46:08;;;;;;;8.05;5.32;;;18.60;72.40;;;;;;2035145;29;20518;-92
2021/09/07 02:47:27;;;;;;;7.57;5.18;;;18.60;72.40;;;;;;2030428;29;20048;-92
2021/09/07 02:48:46;;;;;;;7.80;5.00;;;18.60;72.40;;;;;;2043194;29;20031;-92
2021/09/07 02:50:10;;;;;;;7.07;5.10;;;18.60;72.40;;;;;;2039250;29;20040;-92
2021/09/07 02:51:29;;;;;;;8.50;5.40;;;18.60;72.40;;;;;;2050567;28;20517;-92
2021/09/07 02:52:52;;;;;;;7.40;5.18;;;18.60;72.40;;;;;;2051033;29;20032;-92
2021/09/07 02:54:11;;;;;;;7.22;4.85;;;18.50;72.40;;;;;;2052216;29;20028;-92
2021/09/07 02:55:30;;;;;;;7.53;5.15;;;18.60;72.50;;;;;;2047179;28;20039;-91
2021/09/07 02:56:50;;;;;;;8.05;5.43;;;18.50;72.50;;;;;;2050012;28;20027;-92
2021/09/07 02:58:09;;;;;;;9.05;5.80;;;18.60;72.60;;;;;;2057435;28;20035;-92
2021/09/07 02:59:29;;;;;;;8.38;5.15;;;18.50;72.50;;;;;;2035139;29;20111;-93
2021/09/07 03:00:48;;;;;;;7.63;5.40;;;18.50;72.60;;;;;;2049562;28;20445;-92
2021/09/07 03:02:07;;;;;;;7.97;5.35;;;18.50;72.60;;;;;;2048683;28;20034;-92
2021/09/07 03:03:27;;;;;;;7.57;5.20;;;18.50;72.70;;;;;;2038469;29;20383;-92
2021/09/07 03:04:46;;;;;;;7.80;5.55;;;18.50;72.70;;;;;;2037300;29;20039;-93
2021/09/07 03:06:05;;;;;;;7.47;5.13;;;18.50;73.40;;;;;;2038208;29;20040;-92
2021/09/07 03:07:25;;;;;;;7.75;5.32;;;18.50;72.70;;;;;;2034719;29;20103;-92
2021/09/07 03:08:44;;;;;;;8.60;5.90;;;18.50;72.80;;;;;;2035947;29;20035;-92
2021/09/07 03:10:04;;;;;;;10.23;5.45;;;18.50;72.80;;;;;;2031241;29;20048;-92
2021/09/07 03:11:24;;;;;;;7.43;5.30;;;18.50;72.70;;;;;;2040188;29;20031;-92
2021/09/07 03:12:43;;;;;;;8.55;5.40;;;18.40;72.70;;;;;;2032251;29;20032;-92
2021/09/07 03:14:02;;;;;;;9.10;5.47;;;18.50;72.80;;;;;;2034512;29;20127;-92
2021/09/07 03:15:23;;;;;;;9.38;5.72;;;18.50;72.80;;;;;;2027529;29;20044;-93
2021/09/07 03:16:42;;;;;;;8.13;5.57;;;18.50;72.80;;;;;;2026210;29;20111;-92
2021/09/07 03:18:01;;;;;;;8.43;5.72;;;18.40;72.80;;;;;;2041699;29;20031;-92
2021/09/07 03:19:20;;;;;;;8.20;5.63;;;18.40;72.80;;;;;;2029745;29;20517;-92
2021/09/07 03:20:40;;;;;;;8.50;5.50;;;18.40;72.90;;;;;;2039267;28;20031;-92
2021/09/07 03:21:59;;;;;;;8.65;5.28;;;18.50;73.00;;;;;;2048743;28;20426;-92
2021/09/07 03:23:19;;;;;;;7.85;5.45;;;18.40;73.00;;;;;;2036451;29;20063;-92
2021/09/07 03:24:38;;;;;;;8.15;5.47;;;18.50;73.10;;;;;;2030673;29;20037;-92
2021/09/07 03:25:57;;;;;;;8.18;5.30;;;18.40;73.10;;;;;;2029485;29;20043;-91
2021/09/07 03:27:17;;;;;;;9.07;5.97;;;18.40;73.10;;;;;;2033292;29;20044;-92
2021/09/07 03:28:36;;;;;;;8.95;5.90;;;18.40;73.20;;;;;;2035100;29;20031;-92
2021/09/07 03:29:55;;;;;;;8.25;5.57;;;18.40;73.20;;;;;;2045307;28;20043;-92
2021/09/07 03:31:14;;;;;;;8.07;5.53;;;18.40;73.20;;;;;;2028685;29;20040;-92
2021/09/07 03:32:34;;;;;;;9.77;5.72;;;18.40;73.30;;;;;;2046905;28;20039;-92
2021/09/07 03:33:54;;;;;;;8.50;5.60;;;18.40;73.40;;;;;;2044643;28;20043;-91
2021/09/07 03:35:13;;;;;;;8.13;6.00;;;18.40;73.40;;;;;;2049288;29;20502;-92
2021/09/07 03:36:32;;;;;;;7.85;5.50;;;18.30;73.40;;;;;;2046058;29;20042;-92
2021/09/07 03:37:52;;;;;;;8.45;5.80;;;18.30;73.40;;;;;;2045931;29;20039;-92
2021/09/07 03:39:11;;;;;;;7.93;5.53;;;18.30;73.40;;;;;;2035817;29;20036;-92
2021/09/07 03:40:30;;;;;;;7.97;5.50;;;18.30;73.50;;;;;;2041983;29;20039;-92
2021/09/07 03:41:49;;;;;;;9.88;6.25;;;18.30;73.50;;;;;;2031606;29;20426;-92
2021/09/07 03:43:09;;;;;;;8.23;6.00;;;18.30;73.50;;;;;;2050166;28;20545;-91
2021/09/07 03:44:28;;;;;;;8.48;5.97;;;18.30;73.60;;;;;;2062948;28;20446;-92
2021/09/07 03:45:47;;;;;;;7.78;5.60;;;18.30;73.60;;;;;;2042488;29;20039;-92
2021/09/07 03:47:07;;;;;;;8.05;5.70;;;18.30;73.60;;;;;;2053578;28;20047;-93
2021/09/07 03:48:26;;;;;;;8.48;5.75;;;18.30;73.70;;;;;;2040785;29;20028;-92
2021/09/07 03:49:45;;;;;;;7.57;5.35;;;18.30;73.70;;;;;;2041759;28;20493;-92
2021/09/07 03:51:04;;;;;;;8.77;5.80;;;18.30;73.70;;;;;;2046633;28;20043;-92
2021/09/07 03:52:24;;;;;;;8.32;5.60;;;18.20;73.70;;;;;;2052061;28;20030;-92
2021/09/07 03:53:46;;;;;;;9.43;6.32;;;18.20;73.80;;;;;;2057240;28;20034;-92
2021/09/07 03:55:06;;;;;;;8.40;5.57;;;18.20;73.80;;;;;;2035722;29;20514;-92
2021/09/07 03:56:27;;;;;;;8.45;5.70;;;18.20;73.90;;;;;;2045945;29;20043;-92
2021/09/07 03:57:46;;;;;;;9.23;6.30;;;18.20;73.90;;;;;;2025927;29;20036;-91
2021/09/07 03:59:05;;;;;;;9.60;5.82;;;18.20;73.90;;;;;;2031168;29;20043;-92
2021/09/07 04:00:24;;;;;;;8.07;5.82;;;18.20;74.00;;;;;;2027095;29;20503;-92
2021/09/07 04:01:44;;;;;;;8.77;6.15;;;18.20;74.10;;;;;;2023918;29;20395;-92
2021/09/07 04:03:12;;;;;;;8.98;6.25;;;18.10;74.10;;;;;;2039157;29;20032;-92
2021/09/07 04:04:31;;;;;;;8.88;5.78;;;18.10;74.20;;;;;;2041067;29;20035;-92
2021/09/07 04:05:50;;;;;;;9.20;5.95;;;18.10;74.20;;;;;;2040304;29;20397;-92
2021/09/07 04:07:10;;;;;;;9.38;6.18;;;18.10;74.20;;;;;;2034140;29;20044;-92
2021/09/07 04:08:29;;;;;;;8.68;6.07;;;18.10;74.40;;;;;;2031176;29;20130;-91
2021/09/07 04:09:48;;;;;;;9.48;6.45;;;18.10;74.40;;;;;;2032768;29;20072;-91
2021/09/07 04:11:07;;;;;;;9.77;6.53;;;18.00;74.40;;;;;;2030563;29;20032;-92
2021/09/07 04:12:26;;;;;;;9.18;5.90;;;18.00;74.50;;;;;;2044464;28;20075;-92
2021/09/07 04:13:46;;;;;;;9.45;6.50;;;18.00;74.50;;;;;;2047144;29;20039;-92
2021/09/07 04:15:06;;;;;;;8.38;5.82;;;18.00;74.60;;;;;;2038081;28;20110;-92
2021/09/07 04:16:25;;;;;;;9.38;6.50;;;18.00;74.60;;;;;;2053726;28;20035;-91
2021/09/07 04:17:44;;;;;;;9.07;6.30;;;17.90;74.60;;;;;;2034221;29;20036;-91
2021/09/07 04:19:03;;;;;;;9.23;6.03;;;17.90;74.70;;;;;;2030151;29;20036;-91
2021/09/07 04:20:23;;;;;;;9.77;6.30;;;17.90;74.70;;;;;;2048440;29;20081;-92
2021/09/07 04:21:42;;;;;;;10.80;6.35;;;17.80;74.70;;;;;;2039320;29;20040;-91
2021/09/07 04:23:01;;;;;;;9.57;6.35;;;17.80;74.80;;;;;;2046824;28;20035;-92
2021/09/07 04:24:20;;;;;;;8.77;5.97;;;17.80;74.80;;;;;;2047205;29;20035;-92
2021/09/07 04:25:40;;;;;;;9.82;6.28;;;17.80;74.90;;;;;;2042687;29;20036;-92
2021/09/07 04:26:59;;;;;;;9.60;6.47;;;17.80;74.90;;;;;;2045240;28;20035;-92
2021/09/07 04:28:18;;;;;;;11.35;7.30;;;17.80;74.90;;;;;;2033493;29;20123;-92
2021/09/07 04:29:39;;;;;;;9.65;6.57;;;17.80;75.00;;;;;;2047619;29;20039;-92
2021/09/07 04:30:58;;;;;;;10.05;6.82;;;17.70;75.60;;;;;;2030331;29;20032;-91
2021/09/07 04:32:17;;;;;;;10.80;7.03;;;17.70;75.00;;;;;;2035237;29;20426;-92
2021/09/07 04:33:36;;;;;;;9.43;6.55;;;17.70;75.00;;;;;;2039613;29;20506;-92
2021/09/07 04:34:55;;;;;;;10.48;6.40;;;17.70;75.10;;;;;;2051801;28;20035;-92
2021/09/07 04:36:15;;;;;;;10.50;6.32;;;17.70;75.20;;;;;;2042463;29;20048;-91
2021/09/07 04:37:34;;;;;;;10.07;6.47;;;17.60;75.20;;;;;;2050998;28;20397;-92
2021/09/07 04:38:53;;;;;;;10.77;7.30;;;17.60;75.30;;;;;;2049076;28;20039;-93
2021/09/07 04:40:13;;;;;;;10.73;6.68;;;17.60;75.40;;;;;;2045727;28;20051;-91
2021/09/07 04:41:32;;;;;;;10.02;6.57;;;17.50;75.40;;;;;;2045704;28;20035;-93
2021/09/07 04:42:51;;;;;;;10.25;6.75;;;17.50;75.50;;;;;;2047066;29;20115;-92
2021/09/07 04:44:11;;;;;;;10.73;6.78;;;17.50;75.60;;;;;;2046481;29;20274;-92
2021/09/07 04:45:30;;;;;;;9.75;6.30;;;17.50;75.60;;;;;;2033219;29;20444;-92
2021/09/07 04:46:49;;;;;;;9.52;7.03;;;17.50;75.60;;;;;;2035608;29;20127;-92
2021/09/07 04:48:08;;;;;;;9.65;6.70;;;17.50;76.30;;;;;;2040823;28;20062;-92
2021/09/07 04:49:28;;;;;;;9.65;6.60;;;17.50;75.70;;;;;;2040242;29;20028;-92
2021/09/07 04:50:47;;;;;;;11.10;6.60;;;17.50;76.40;;;;;;2030425;29;20131;-91
2021/09/07 04:52:07;;;;;;;10.80;6.80;;;17.50;75.80;;;;;;2039896;29;20112;-92
2021/09/07 04:53:26;;;;;;;8.90;6.18;;;17.50;75.80;;;;;;2038198;29;20024;-92
2021/09/07 04:54:45;;;;;;;9.93;7.10;;;17.50;75.80;;;;;;2053689;28;20107;-92
2021/09/07 04:56:05;;;;;;;10.52;6.93;;;17.40;75.80;;;;;;2040832;29;20059;-89
2021/09/07 04:57:24;;;;;;;9.95;6.75;;;17.40;75.80;;;;;;2043733;28;20039;-91
2021/09/07 04:58:43;;;;;;;10.43;6.95;;;17.40;75.90;;;;;;2041438;29;20040;-91
2021/09/07 05:00:03;;;;;;;10.25;7.40;;;17.40;75.90;;;;;;2046271;28;20042;-91
2021/09/07 05:01:23;;;;;;;10.38;7.25;;;17.40;75.90;;;;;;2034689;29;20036;-91
2021/09/07 05:02:42;;;;;;;13.27;7.50;;;17.40;75.90;;;;;;2034491;29;20035;-89
2021/09/07 05:04:01;;;;;;;10.30;7.22;;;17.40;76.00;;;;;;2039910;29;20031;-90
2021/09/07 05:05:21;;;;;;;9.98;6.70;;;17.40;76.00;;;;;;2048443;28;20039;-92
2021/09/07 05:06:40;;;;;;;9.57;6.60;;;17.40;76.00;;;;;;2034074;29;20040;-92
2021/09/07 05:07:59;;;;;;;11.13;7.28;;;17.40;76.00;;;;;;2044990;29;20039;-90
2021/09/07 05:09:18;;;;;;;10.48;7.07;;;17.40;76.00;;;;;;2042243;29;20035;-91
2021/09/07 05:10:38;;;;;;;10.45;7.28;;;17.40;76.00;;;;;;2047430;28;20047;-92
2021/09/07 05:11:57;;;;;;;11.48;6.75;;;17.40;76.00;;;;;;2045445;28;20039;-92
2021/09/07 05:13:16;;;;;;;11.55;7.47;;;17.40;76.00;;;;;;2033900;29;20032;-90
2021/09/07 05:14:36;;;;;;;10.15;7.10;;;17.40;76.00;;;;;;2051241;28;20039;-92
2021/09/07 05:15:55;;;;;;;10.68;7.20;;;17.40;76.00;;;;;;2035686;29;20039;-91
2021/09/07 05:17:14;;;;;;;11.23;7.78;;;17.40;76.60;;;;;;2037211;29;20032;-89
2021/09/07 05:18:33;;;;;;;11.18;7.18;;;17.40;76.00;;;;;;2046213;29;20023;-91
2021/09/07 05:19:52;;;;;;;10.32;7.25;;;17.40;76.00;;;;;;2056347;28;20469;-91
2021/09/07 05:21:12;;;;;;;10.68;7.30;;;17.40;76.00;;;;;;2055202;28;20051;-90
2021/09/07 05:22:32;;;;;;;10.73;7.53;;;17.50;76.70;;;;;;2058430;28;20034;-91
2021/09/07 05:23:51;;;;;;;10.60;7.30;;;17.50;76.00;;;;;;2047070;29;20043;-92
2021/09/07 05:25:11;;;;;;;10.63;7.53;;;17.50;76.00;;;;;;2046309;29;20051;-91
2021/09/07 05:26:30;;;;;;;11.63;7.10;;;17.40;76.00;;;;;;2053194;28;20085;-91
2021/09/07 05:27:49;;;;;;;11.38;7.32;;;17.50;76.00;;;;;;2053623;29;20027;-92
2021/09/07 05:29:09;;;;;;;9.80;7.10;;;17.40;76.00;;;;;;2052169;29;20031;-92
2021/09/07 05:30:28;;;;;;;10.30;7.22;;;17.50;76.00;;;;;;2047584;29;20035;-93
2021/09/07 05:31:48;;;;;;;9.48;6.82;;;17.50;76.00;;;;;;2050310;28;20051;-86
2021/09/07 05:33:07;;;;;;;11.27;7.40;;;17.40;76.00;;;;;;2040536;28;20036;-94
2021/09/07 05:34:29;;;;;;;12.35;7.90;;;17.50;76.00;;;;;;2049595;28;20035;-92
2021/09/07 05:35:49;;;;;;;11.50;7.68;;;17.50;76.00;;;;;;2032746;29;20099;-92
2021/09/07 05:37:08;;;;;;;11.10;7.75;;;17.40;75.90;;;;;;2041155;29;20094;-92
2021/09/07 05:38:27;;;;;;;10.68;6.88;;;17.50;76.00;;;;;;2054930;28;20389;-94
2021/09/07 05:39:46;;;;;;;11.13;7.43;;;17.50;76.00;;;;;;2041450;29;20028;-92
2021/09/07 05:41:05;;;;;;;11.50;7.55;;;17.50;76.00;;;;;;2051784;28;20397;-92
2021/09/07 05:42:24;;;;;;;9.95;6.97;;;17.50;76.00;;;;;;2058623;28;20022;-93
2021/09/07 05:43:44;;;;;;;10.20;6.90;;;17.50;76.00;;;;;;2039877;29;20052;-93
2021/09/07 05:45:04;;;;;;;10.10;7.20;;;17.50;76.00;;;;;;2036091;29;20036;-93
2021/09/07 05:46:23;;;;;;;10.10;7.38;;;17.50;76.00;;;;;;2031058;29;20127;-93
2021/09/07 05:47:43;;;;;;;11.30;7.50;;;17.50;75.90;;;;;;2035402;28;20427;-93
2021/09/07 05:49:02;;;;;;;9.60;7.00;;;17.50;75.90;;;;;;2038875;29;20126;-94
2021/09/07 05:50:22;;;;;;;10.55;7.30;;;17.50;75.90;;;;;;2026555;29;20079;-94
2021/09/07 05:51:44;;;;;;;10.85;7.03;;;17.50;75.80;;;;;;2038910;29;20039;-94
2021/09/07 05:53:03;;;;;;;10.00;7.00;;;17.50;75.80;;;;;;2039865;29;20166;-94
2021/09/07 05:54:22;;;;;;;9.77;6.80;;;17.50;75.80;;;;;;2031328;29;20032;-94
2021/09/07 05:55:41;;;;;;;10.45;7.30;;;17.60;75.80;;;;;;2028387;29;20036;-93
2021/09/07 05:57:00;;;;;;;10.60;7.25;;;17.60;75.80;;;;;;2038975;29;20035;-94
2021/09/07 05:58:20;;;;;;;11.10;7.30;;;17.60;75.80;;;;;;2032968;29;20044;-93
2021/09/07 05:59:39;;;;;;;9.85;6.80;;;17.60;75.90;;;;;;2036081;29;20418;-94
2021/09/07 06:00:58;;;;;;;11.27;7.57;;;17.60;75.80;;;;;;2050068;29;20498;-94
2021/09/07 06:02:17;;;;;;;10.90;7.55;;;17.60;75.80;;;;;;2042005;29;20040;-93
2021/09/07 06:03:37;;;;;;;10.48;7.20;;;17.60;75.80;;;;;;2039083;29;20032;-94
2021/09/07 06:04:56;;;;;;;11.02;7.47;;;17.60;75.80;;;;;;2038112;29;20029;-94
2021/09/07 06:06:16;;;;;;;11.18;7.80;;;17.60;75.80;;;;;;2045956;29;20043;-95
2021/09/07 06:07:35;;;;;;;10.50;7.18;;;17.70;75.80;;;;;;2034064;29;20024;-94
2021/09/07 06:08:54;;;;;;;12.07;7.78;;;17.70;75.80;;;;;;2045347;28;20474;-94
2021/09/07 06:10:13;;;;;;;10.48;7.10;;;17.60;75.70;;;;;;2042236;29;20028;-94
2021/09/07 06:11:33;;;;;;;11.38;7.22;;;17.70;75.80;;;;;;2035663;29;20514;-94
2021/09/07 06:12:52;;;;;;;11.18;7.30;;;17.70;75.60;;;;;;2047055;28;20075;-93
2021/09/07 06:14:11;;;;;;;11.02;7.32;;;17.70;75.60;;;;;;2036906;29;20036;-95
2021/09/07 06:15:31;;;;;;;11.73;7.95;;;17.70;75.50;;;;;;2031089;29;20068;-94
2021/09/07 06:16:50;;;;;;;11.00;7.10;;;17.70;75.40;;;;;;2036166;29;20035;-94
2021/09/07 06:18:10;;;;;;;11.57;7.82;;;17.80;75.30;;;;;;2035117;29;20530;-94
2021/09/07 06:19:29;;;;;;;11.35;8.13;;;17.80;75.20;;;;;;2041743;29;20040;-90
2021/09/07 06:20:48;;;;;;;10.52;7.70;;;17.80;75.10;;;;;;2038964;29;20047;-95
2021/09/07 06:22:08;;;;;;;11.05;7.47;;;17.90;75.00;;;;;;2048189;29;20035;-96
2021/09/07 06:23:27;;;;;;;11.57;8.02;;;17.90;74.90;;;;;;2047285;29;20040;-95
2021/09/07 06:24:46;;;;;;;11.02;7.90;;;18.00;74.80;;;;;;2056774;28;20015;-96
2021/09/07 06:26:06;;;;;;;10.95;7.72;;;18.00;74.60;;;;;;2051663;28;20035;-96
2021/09/07 06:27:26;;;;;;;11.18;7.70;;;18.10;74.60;;;;;;2044696;29;20032;-96
2021/09/07 06:28:46;;;;;;;12.05;7.82;;;18.10;74.50;;;;;;2031796;29;20091;-96
2021/09/07 06:30:08;;;;;;;10.43;7.40;;;18.20;74.40;;;;;;2040912;29;20047;-96
2021/09/07 06:31:27;;;;;;;10.85;7.75;;;18.20;74.30;;;;;;2031811;29;20044;-95
2021/09/07 06:32:47;;;;;;;11.07;8.02;;;18.30;74.20;;;;;;2031089;29;20051;-96
2021/09/07 06:34:07;;;;;;;10.18;7.38;;;18.30;74.10;;;;;;2031103;29;20064;-96
2021/09/07 06:35:27;;;;;;;10.25;7.50;;;18.40;74.10;;;;;;2031098;29;20043;-96
2021/09/07 06:36:46;;;;;;;10.98;7.85;;;18.40;73.90;;;;;;2040492;29;20459;-96
2021/09/07 06:38:05;;;;;;;10.52;6.88;;;18.40;73.80;;;;;;2040442;29;20111;-96
2021/09/07 06:39:25;;;;;;;12.25;8.07;;;18.50;73.80;;;;;;2031975;29;20020;-95
2021/09/07 06:40:44;;;;;;;10.38;7.28;;;18.60;73.80;;;;;;2043788;29;20016;-96
2021/09/07 06:42:07;;;;;;;10.27;7.30;;;18.60;73.70;;;;;;2045862;28;20020;-84
2021/09/07 06:43:26;;;;;;;10.95;7.40;;;18.60;73.60;;;;;;2043531;29;20028;-96
2021/09/07 06:44:45;;;;;;;10.60;7.50;;;18.70;73.50;;;;;;2035864;29;20043;-96
2021/09/07 06:46:05;;;;;;;9.77;7.25;;;18.70;73.40;;;;;;2044149;29;20035;-96
2021/09/07 06:47:24;;;;;;;10.20;7.43;;;18.80;73.40;;;;;;2045678;29;20032;-96
2021/09/07 06:48:46;;;;;;;9.77;7.25;;;18.80;73.40;;;;;;2038999;29;20059;-96
2021/09/07 06:50:06;;;;;;;9.95;7.60;;;18.80;73.30;;;;;;2041711;29;20449;-96
2021/09/07 06:51:25;;;;;;;10.90;7.20;;;18.90;73.30;;;;;;2047443;29;20454;-95
2021/09/07 06:52:44;;;;;;;10.48;7.68;;;18.90;73.30;;;;;;2040836;29;20055;-96